Time;durP1;ratioP1;P1;durP2;ratioP2;P2;SDS_P1;SDS_P2;PMS_P1;PMS_P2;Temp;Humidity;BMP_temperature;BMP_pressure;BME280_temperature;BME280_humidity;BME280_pressure;Samples;Min_cycle;Max_cycle;Signal;HPM_P1;HPM_P2
2023/12/10 00:02:11;;;;;;;39.17;5.90;;;;;;;10.75;100.00;100047.75;5219441;28;20598;-75
2023/12/10 00:04:43;;;;;;;40.58;5.03;;;;;;;10.75;100.00;100046.94;5211956;28;20096;-74
2023/12/10 00:07:13;;;;;;;36.22;5.13;;;;;;;10.71;100.00;100057.19;5210550;28;20049;-74
2023/12/10 00:09:44;;;;;;;28.73;5.05;;;;;;;10.71;100.00;100057.19;5218668;28;20033;-75
2023/12/10 00:12:15;;;;;;;34.88;6.20;;;;;;;10.72;100.00;100061.53;5213294;28;20017;-74
2023/12/10 00:14:49;;;;;;;35.10;5.38;;;;;;;10.72;100.00;100066.91;5218037;28;20047;-74
2023/12/10 00:17:21;;;;;;;41.67;4.50;;;;;;;10.71;100.00;100062.56;5213765;28;20300;-74
2023/12/10 00:19:52;;;;;;;33.63;5.47;;;;;;;10.70;100.00;100077.00;5215505;28;20033;-74
2023/12/10 00:22:23;;;;;;;33.00;5.07;;;;;;;10.70;100.00;100070.81;5216870;28;20036;-74
2023/12/10 00:24:53;;;;;;;28.52;4.90;;;;;;;10.66;100.00;100069.50;5214949;28;20033;-74
2023/12/10 00:27:24;;;;;;;35.03;5.05;;;;;;;10.68;100.00;100088.91;5217916;28;20481;-74
2023/12/10 00:29:54;;;;;;;37.10;5.25;;;;;;;10.66;100.00;100073.03;5211872;28;20044;-74
2023/12/10 00:32:25;;;;;;;34.53;5.32;;;;;;;10.73;100.00;100092.69;5218494;28;20024;-74
2023/12/10 00:34:55;;;;;;;22.55;4.03;;;;;;;10.71;100.00;100085.88;5214240;28;20454;-75
2023/12/10 00:37:26;;;;;;;31.83;4.60;;;;;;;10.66;100.00;100094.47;5211281;28;20030;-74
2023/12/10 00:39:56;;;;;;;24.90;4.47;;;;;;;10.72;100.00;100088.38;5211128;28;20056;-74
2023/12/10 00:42:27;;;;;;;39.65;5.13;;;;;;;10.65;100.00;100089.31;5212486;28;20032;-74
2023/12/10 00:44:58;;;;;;;31.35;4.88;;;;;;;10.57;100.00;100103.63;5216272;28;20349;-74
2023/12/10 00:47:29;;;;;;;30.33;4.97;;;;;;;10.68;100.00;100110.38;5222963;28;20481;-74
2023/12/10 00:49:59;;;;;;;29.45;4.57;;;;;;;10.64;100.00;100115.28;5225610;28;20419;-74
2023/12/10 00:52:30;;;;;;;28.50;4.70;;;;;;;10.66;100.00;100113.25;5216139;28;20023;-75
2023/12/10 00:55:00;;;;;;;25.70;4.88;;;;;;;10.57;100.00;100098.25;5218048;28;20037;-74
2023/12/10 00:57:31;;;;;;;24.88;4.38;;;;;;;10.61;100.00;100115.66;5210038;28;20025;-74
2023/12/10 01:00:02;;;;;;;28.10;4.72;;;;;;;10.66;100.00;100110.56;5227509;28;20708;-75
2023/12/10 01:02:32;;;;;;;24.27;3.38;;;;;;;10.61;100.00;100118.34;5215102;28;20029;-75
2023/12/10 01:05:03;;;;;;;26.73;4.40;;;;;;;10.70;100.00;100135.19;5211156;28;20017;-75
2023/12/10 01:07:33;;;;;;;30.98;3.90;;;;;;;10.69;100.00;100128.97;5217747;28;20396;-74
2023/12/10 01:10:05;;;;;;;29.98;4.13;;;;;;;10.66;100.00;100141.94;5207995;28;20074;-74
2023/12/10 01:12:37;;;;;;;25.73;5.07;;;;;;;10.71;100.00;100134.16;5213210;28;20060;-74
2023/12/10 01:15:08;;;;;;;26.75;4.20;;;;;;;10.70;100.00;100137.88;5207553;28;20028;-74
2023/12/10 01:17:39;;;;;;;27.17;4.07;;;;;;;10.66;100.00;100149.97;5220723;28;20554;-74
2023/12/10 01:20:10;;;;;;;21.67;3.22;;;;;;;10.66;100.00;100158.84;5213653;28;20017;-75
2023/12/10 01:22:40;;;;;;;19.15;3.72;;;;;;;10.69;100.00;100153.09;5211455;28;20072;-74
2023/12/10 01:25:13;;;;;;;19.58;3.95;;;;;;;10.55;100.00;100165.50;5209430;28;20021;-74
2023/12/10 01:27:43;;;;;;;26.40;4.15;;;;;;;10.57;100.00;100166.16;5206752;28;20048;-74
2023/12/10 01:30:14;;;;;;;21.20;4.28;;;;;;;10.54;100.00;100181.75;5208669;28;20021;-75
2023/12/10 01:32:45;;;;;;;26.90;5.55;;;;;;;10.62;100.00;100173.66;5213323;28;20064;-75
2023/12/10 01:35:15;;;;;;;24.30;4.10;;;;;;;10.67;100.00;100183.84;5215915;28;20211;-74
2023/12/10 01:37:46;;;;;;;32.53;4.43;;;;;;;10.58;100.00;100185.75;5215399;28;20061;-75
2023/12/10 01:40:17;;;;;;;20.40;3.95;;;;;;;10.60;100.00;100186.41;5217010;28;20035;-74
2023/12/10 01:42:48;;;;;;;21.95;3.45;;;;;;;10.56;100.00;100177.91;5210721;28;20026;-74
2023/12/10 01:45:18;;;;;;;25.67;3.45;;;;;;;10.58;100.00;100193.78;5207807;28;20083;-75
2023/12/10 01:47:51;;;;;;;26.70;4.90;;;;;;;10.54;100.00;100187.97;5208318;28;20037;-74
2023/12/10 01:50:22;;;;;;;33.58;4.78;;;;;;;10.52;100.00;100181.94;5224907;28;20420;-75
2023/12/10 01:52:53;;;;;;;25.10;3.65;;;;;;;10.49;100.00;100189.50;5210340;28;20025;-74
2023/12/10 01:55:24;;;;;;;27.73;4.93;;;;;;;10.53;100.00;100198.88;5210273;28;20301;-74
2023/12/10 01:57:55;;;;;;;22.52;3.78;;;;;;;10.56;100.00;100210.06;5206962;28;20056;-74
2023/12/10 02:00:26;;;;;;;27.20;3.60;;;;;;;10.60;100.00;100200.66;5213791;28;20476;-74
2023/12/10 02:02:56;;;;;;;27.30;4.28;;;;;;;10.59;100.00;100209.72;5213129;28;20033;-73
2023/12/10 02:05:27;;;;;;;25.05;4.15;;;;;;;10.63;100.00;100229.78;5208314;28;20110;-73
2023/12/10 02:07:58;;;;;;;20.40;3.70;;;;;;;10.65;100.00;100210.84;5212234;28;20383;-73
2023/12/10 02:10:40;;;;;;;25.05;3.58;;;;;;;10.58;100.00;100210.72;5214377;28;20456;-73
2023/12/10 02:13:11;;;;;;;22.45;3.67;;;;;;;10.52;100.00;100230.22;5205886;28;20025;-73
2023/12/10 02:15:41;;;;;;;24.65;3.85;;;;;;;10.56;100.00;100236.91;5221172;28;20033;-73
2023/12/10 02:18:20;;;;;;;28.05;3.83;;;;;;;10.58;100.00;100240.22;5214442;28;20018;-74
2023/12/10 02:20:51;;;;;;;29.52;4.43;;;;;;;10.54;100.00;100233.56;5215372;28;20035;-74
2023/12/10 02:23:43;;;;;;;29.27;4.50;;;;;;;10.58;100.00;100259.00;5217535;28;20584;-73
2023/12/10 02:26:14;;;;;;;24.25;3.95;;;;;;;10.50;100.00;100239.47;5214806;28;20075;-73
2023/12/10 02:29:04;;;;;;;19.40;3.00;;;;;;;10.49;100.00;100249.38;5222165;28;20395;-73
2023/12/10 02:31:50;;;;;;;24.90;3.60;;;;;;;10.44;100.00;100258.94;5207352;28;20021;-73
2023/12/10 02:34:22;;;;;;;20.98;3.85;;;;;;;10.31;100.00;100255.03;5209953;28;20036;-73
2023/12/10 02:36:52;;;;;;;22.33;4.22;;;;;;;10.37;100.00;100286.47;5213248;28;20025;-74
2023/12/10 02:39:23;;;;;;;30.13;3.83;;;;;;;10.40;100.00;100271.91;5212573;28;20025;-73
2023/12/10 02:41:53;;;;;;;20.23;3.83;;;;;;;10.41;100.00;100276.25;5214191;28;20063;-74
2023/12/10 02:44:23;;;;;;;32.50;4.80;;;;;;;10.39;100.00;100283.63;5204000;28;20189;-74
2023/12/10 02:46:54;;;;;;;30.40;3.42;;;;;;;10.44;100.00;100275.91;5214323;28;20032;-74
2023/12/10 02:49:24;;;;;;;25.02;4.30;;;;;;;10.32;100.00;100283.50;5219615;28;20031;-73
2023/12/10 02:51:55;;;;;;;27.38;4.50;;;;;;;10.29;100.00;100277.66;5210112;28;20025;-74
2023/12/10 02:54:26;;;;;;;33.58;3.65;;;;;;;10.27;100.00;100275.16;5211011;28;20033;-73
2023/12/10 02:56:57;;;;;;;39.13;6.43;;;;;;;10.21;100.00;100297.28;5207246;28;20078;-74
2023/12/10 02:59:27;;;;;;;26.50;4.57;;;;;;;10.25;100.00;100304.00;5211386;28;20054;-73
2023/12/10 03:01:58;;;;;;;26.38;3.92;;;;;;;10.37;100.00;100302.56;5215122;28;20438;-74
2023/12/10 03:04:28;;;;;;;31.92;4.25;;;;;;;10.45;100.00;100303.56;5206366;28;20633;-74
2023/12/10 03:07:12;;;;;;;17.88;3.22;;;;;;;10.44;100.00;100310.75;5207717;28;20086;-74
2023/12/10 03:09:44;;;;;;;33.78;4.80;;;;;;;10.45;100.00;100315.09;5215813;28;20029;-73
2023/12/10 03:12:14;;;;;;;21.92;4.28;;;;;;;10.49;100.00;100312.88;5208137;28;20022;-74
2023/12/10 03:14:45;;;;;;;35.10;4.70;;;;;;;10.51;100.00;100317.06;5209256;28;20476;-73
2023/12/10 03:17:16;;;;;;;21.73;3.13;;;;;;;10.52;100.00;100307.16;5212527;28;20086;-74
2023/12/10 03:19:46;;;;;;;27.88;3.55;;;;;;;10.63;100.00;100317.47;5208396;28;20492;-74
2023/12/10 03:22:17;;;;;;;30.85;3.95;;;;;;;10.56;100.00;100333.47;5204640;28;20507;-73
2023/12/10 03:24:48;;;;;;;19.30;3.67;;;;;;;10.58;100.00;100342.16;5209035;28;20025;-74
2023/12/10 03:27:18;;;;;;;19.83;3.20;;;;;;;10.59;100.00;100351.88;5211321;28;20045;-74
2023/12/10 03:29:49;;;;;;;29.48;3.70;;;;;;;10.59;100.00;100354.56;5208311;28;20079;-73
2023/12/10 03:32:19;;;;;;;27.25;4.85;;;;;;;10.66;100.00;100341.28;5208533;28;20032;-73
2023/12/10 03:34:50;;;;;;;28.08;4.30;;;;;;;10.56;100.00;100357.59;5210643;28;20052;-74
2023/12/10 03:37:21;;;;;;;23.58;3.95;;;;;;;10.54;100.00;100359.63;5213261;28;20020;-73
2023/12/10 03:39:51;;;;;;;33.88;4.32;;;;;;;10.64;100.00;100378.16;5211370;28;20033;-74
2023/12/10 03:42:22;;;;;;;27.75;3.80;;;;;;;10.71;100.00;100356.84;5211571;28;20033;-73
2023/12/10 03:44:55;;;;;;;23.75;3.83;;;;;;;10.73;100.00;100360.16;5208555;28;20021;-74
2023/12/10 03:47:25;;;;;;;31.48;3.92;;;;;;;10.67;100.00;100361.72;5206836;28;20116;-73
2023/12/10 03:49:56;;;;;;;20.20;3.03;;;;;;;10.65;100.00;100350.34;5210016;28;20021;-74
2023/12/10 03:52:27;;;;;;;30.33;5.13;;;;;;;10.61;100.00;100365.94;5208755;28;20040;-73
2023/12/10 03:54:57;;;;;;;29.08;4.50;;;;;;;10.55;100.00;100372.03;5212213;28;20066;-73
2023/12/10 03:57:28;;;;;;;33.10;3.88;;;;;;;10.57;100.00;100375.34;5203304;28;20048;-73
2023/12/10 03:59:58;;;;;;;25.88;4.03;;;;;;;10.54;100.00;100382.91;5210750;28;20526;-73
2023/12/10 04:02:29;;;;;;;30.85;5.43;;;;;;;10.49;100.00;100382.59;5211415;28;20065;-73
2023/12/10 04:04:59;;;;;;;29.33;4.15;;;;;;;10.46;100.00;100396.38;5206394;28;20025;-73
2023/12/10 04:07:30;;;;;;;28.45;5.97;;;;;;;10.49;100.00;100390.66;5226010;28;20091;-73
2023/12/10 04:10:01;;;;;;;28.77;3.80;;;;;;;10.57;100.00;100401.34;5211973;28;20033;-73
2023/12/10 04:12:32;;;;;;;21.35;3.63;;;;;;;10.48;100.00;100387.13;5214933;28;20104;-74
2023/12/10 04:15:04;;;;;;;30.08;4.72;;;;;;;10.52;100.00;100388.47;5206161;28;20607;-73
2023/12/10 04:17:35;;;;;;;24.23;4.75;;;;;;;10.58;100.00;100400.31;5209459;28;20398;-73
2023/12/10 04:20:06;;;;;;;34.28;4.72;;;;;;;10.51;100.00;100410.94;5207846;28;20029;-73
2023/12/10 04:22:37;;;;;;;33.60;5.80;;;;;;;10.66;100.00;100412.88;5217382;28;20037;-74
2023/12/10 04:25:08;;;;;;;23.85;4.22;;;;;;;10.59;100.00;100413.59;5206766;28;20515;-74
2023/12/10 04:27:39;;;;;;;26.65;4.75;;;;;;;10.52;100.00;100412.59;5213091;28;20040;-73
2023/12/10 04:30:10;;;;;;;23.90;3.60;;;;;;;10.51;100.00;100421.66;5222466;28;20021;-73
2023/12/10 04:32:40;;;;;;;19.13;3.38;;;;;;;10.48;100.00;100419.31;5213314;28;20391;-74
2023/12/10 04:35:11;;;;;;;30.50;3.90;;;;;;;10.39;100.00;100415.00;5214516;28;20029;-74
2023/12/10 04:37:42;;;;;;;24.23;3.78;;;;;;;10.35;100.00;100421.75;5205784;28;20040;-73
2023/12/10 04:40:13;;;;;;;18.05;3.38;;;;;;;10.40;100.00;100435.47;5214405;28;20048;-73
2023/12/10 04:42:43;;;;;;;24.50;3.67;;;;;;;10.43;100.00;100427.06;5212167;28;20029;-73
2023/12/10 04:45:14;;;;;;;28.35;4.28;;;;;;;10.35;100.00;100438.69;5214628;28;20385;-73
2023/12/10 04:47:45;;;;;;;24.52;4.18;;;;;;;10.37;100.00;100444.69;5215490;28;20037;-73
2023/12/10 04:50:17;;;;;;;22.40;3.03;;;;;;;10.47;100.00;100440.97;5214722;28;20035;-73
2023/12/10 04:52:48;;;;;;;25.95;3.60;;;;;;;10.50;100.00;100446.81;5212381;28;20499;-73
2023/12/10 04:55:18;;;;;;;25.63;3.97;;;;;;;10.49;100.00;100455.88;5211624;28;20053;-73
2023/12/10 04:57:49;;;;;;;28.05;4.18;;;;;;;10.50;100.00;100446.00;5211718;28;20472;-73
2023/12/10 05:00:20;;;;;;;25.80;4.05;;;;;;;10.54;100.00;100461.56;5212594;28;20055;-73
2023/12/10 05:02:50;;;;;;;29.70;3.63;;;;;;;10.53;100.00;100473.28;5215081;28;20028;-74
2023/12/10 05:05:21;;;;;;;27.67;3.35;;;;;;;10.50;100.00;100462.91;5211444;28;20388;-73
2023/12/10 05:07:51;;;;;;;29.73;3.42;;;;;;;10.44;100.00;100477.03;5213353;28;20464;-73
2023/12/10 05:10:22;;;;;;;22.42;3.50;;;;;;;10.47;100.00;100481.19;5212540;28;20021;-73
2023/12/10 05:12:52;;;;;;;30.25;4.35;;;;;;;10.47;100.00;100486.56;5213709;28;20063;-73
2023/12/10 05:15:22;;;;;;;21.08;3.70;;;;;;;10.43;100.00;100485.22;5212374;28;20048;-74
2023/12/10 05:17:53;;;;;;;28.92;5.35;;;;;;;10.43;100.00;100491.44;5212985;28;20025;-74
2023/12/10 05:20:24;;;;;;;32.35;3.67;;;;;;;10.42;100.00;100497.81;5211293;28;20026;-73
2023/12/10 05:22:54;;;;;;;26.40;3.90;;;;;;;10.41;100.00;100503.34;5215237;28;20059;-73
2023/12/10 05:25:27;;;;;;;26.50;3.63;;;;;;;10.24;100.00;100506.09;5212784;28;20518;-73
2023/12/10 05:27:58;;;;;;;35.40;4.30;;;;;;;10.28;100.00;100509.25;5212030;28;20395;-73
2023/12/10 05:30:28;;;;;;;19.63;3.30;;;;;;;10.25;100.00;100506.94;5209803;28;20037;-73
2023/12/10 05:32:59;;;;;;;23.45;4.25;;;;;;;10.29;100.00;100513.59;5212365;28;20025;-73
2023/12/10 05:35:29;;;;;;;31.35;4.95;;;;;;;10.21;100.00;100511.75;5216098;28;20039;-73
2023/12/10 05:38:00;;;;;;;32.92;5.80;;;;;;;10.12;100.00;100518.97;5207828;28;20033;-73
2023/12/10 05:40:31;;;;;;;35.45;3.67;;;;;;;10.10;100.00;100514.81;5208094;28;20171;-73
2023/12/10 05:43:02;;;;;;;28.80;3.60;;;;;;;10.09;100.00;100519.34;5209183;28;20492;-73
2023/12/10 05:45:33;;;;;;;33.05;4.40;;;;;;;10.07;100.00;100515.13;5218425;28;20027;-73
2023/12/10 05:48:03;;;;;;;35.60;4.72;;;;;;;10.09;100.00;100534.56;5213334;28;20523;-73
2023/12/10 05:50:34;;;;;;;32.42;4.07;;;;;;;10.04;100.00;100529.72;5208909;28;20035;-73
2023/12/10 05:53:04;;;;;;;17.45;3.67;;;;;;;10.04;100.00;100550.31;5212032;28;20029;-73
2023/12/10 05:55:35;;;;;;;24.77;3.60;;;;;;;10.01;100.00;100542.63;5212695;28;20460;-73
2023/12/10 05:58:05;;;;;;;26.70;4.35;;;;;;;10.01;100.00;100546.13;5215971;28;20029;-73
2023/12/10 06:00:36;;;;;;;33.13;4.72;;;;;;;9.93;100.00;100551.50;5209577;28;20459;-74
2023/12/10 06:03:06;;;;;;;32.60;4.80;;;;;;;9.97;100.00;100552.00;5212673;28;20033;-73
2023/12/10 06:05:37;;;;;;;29.33;4.32;;;;;;;9.89;100.00;100560.91;5209992;28;20040;-73
2023/12/10 06:08:09;;;;;;;25.52;3.42;;;;;;;9.88;100.00;100577.97;5213246;28;20183;-74
2023/12/10 06:10:40;;;;;;;35.28;5.75;;;;;;;9.98;100.00;100578.63;5205910;28;20033;-73
2023/12/10 06:13:10;;;;;;;27.55;6.15;;;;;;;9.96;100.00;100577.97;5213363;28;20017;-73
2023/12/10 06:15:41;;;;;;;29.20;7.35;;;;;;;9.96;100.00;100585.19;5208192;28;20116;-73
2023/12/10 06:18:12;;;;;;;37.47;8.57;;;;;;;9.99;100.00;100583.00;5204837;28;20480;-73
2023/12/10 06:20:42;;;;;;;28.42;4.10;;;;;;;9.89;100.00;100593.06;5217131;28;20028;-73
2023/12/10 06:23:13;;;;;;;32.47;6.47;;;;;;;9.89;100.00;100590.38;5202495;28;20028;-73
2023/12/10 06:25:43;;;;;;;23.13;5.50;;;;;;;9.88;100.00;100595.88;5210827;28;20502;-73
2023/12/10 06:28:14;;;;;;;30.20;5.50;;;;;;;9.76;100.00;100604.25;5200094;28;20029;-73
2023/12/10 06:30:44;;;;;;;30.13;5.65;;;;;;;9.84;100.00;100616.84;5205878;28;20022;-73
2023/12/10 06:33:15;;;;;;;27.35;5.70;;;;;;;9.89;100.00;100619.84;5209100;28;20495;-73
2023/12/10 06:35:45;;;;;;;37.28;7.13;;;;;;;9.79;100.00;100620.03;5210242;28;20070;-73
2023/12/10 06:38:16;;;;;;;27.52;6.13;;;;;;;9.74;100.00;100617.00;5203630;28;20022;-73
2023/12/10 06:40:46;;;;;;;17.73;4.00;;;;;;;9.74;100.00;100632.22;5205204;28;20043;-73
2023/12/10 06:43:17;;;;;;;35.08;7.35;;;;;;;9.74;100.00;100627.72;5205428;28;20037;-73
2023/12/10 06:45:47;;;;;;;40.30;8.23;;;;;;;9.76;100.00;100632.91;5210404;28;20036;-73
2023/12/10 06:48:18;;;;;;;29.27;7.20;;;;;;;9.75;100.00;100644.63;5206840;28;20029;-72
2023/12/10 06:50:48;;;;;;;31.42;6.95;;;;;;;9.73;100.00;100647.44;5203764;28;20030;-73
2023/12/10 06:53:19;;;;;;;123.53;44.03;;;;;;;9.70;100.00;100658.50;5203751;28;20017;-73
2023/12/10 06:55:49;;;;;;;46.00;13.88;;;;;;;9.69;100.00;100654.16;5203093;28;20089;-72
2023/12/10 06:58:20;;;;;;;37.33;12.35;;;;;;;9.71;100.00;100654.81;5203522;28;20074;-73
2023/12/10 07:00:50;;;;;;;23.60;6.10;;;;;;;9.63;100.00;100665.50;5208730;28;20025;-73
2023/12/10 07:03:21;;;;;;;28.65;4.10;;;;;;;9.68;100.00;100663.19;5206216;28;20396;-73
2023/12/10 07:05:51;;;;;;;29.80;4.85;;;;;;;9.66;100.00;100667.03;5203367;28;20040;-72
2023/12/10 07:08:22;;;;;;;27.38;3.80;;;;;;;9.65;100.00;100668.88;5210337;28;20361;-73
2023/12/10 07:10:52;;;;;;;28.67;4.55;;;;;;;9.68;100.00;100683.78;5205370;28;20475;-73
2023/12/10 07:13:23;;;;;;;28.45;4.82;;;;;;;9.74;100.00;100694.69;5204622;28;20391;-73
2023/12/10 07:15:53;;;;;;;26.92;5.05;;;;;;;9.68;100.00;100687.28;5213193;28;20105;-73
2023/12/10 07:18:24;;;;;;;31.35;6.63;;;;;;;9.69;100.00;100693.47;5210942;28;20024;-73
2023/12/10 07:20:54;;;;;;;27.67;4.53;;;;;;;9.68;100.00;100689.97;5212319;28;20039;-73
2023/12/10 07:23:25;;;;;;;27.05;4.72;;;;;;;9.66;100.00;100691.16;5213222;28;20028;-73
2023/12/10 07:25:56;;;;;;;23.88;5.13;;;;;;;9.67;100.00;100692.81;5212284;28;20029;-73
2023/12/10 07:28:26;;;;;;;38.28;8.18;;;;;;;9.66;100.00;100693.81;5203082;28;20033;-73
2023/12/10 07:30:57;;;;;;;41.55;15.23;;;;;;;9.70;100.00;100701.38;5208795;28;20024;-73
2023/12/10 07:33:27;;;;;;;44.88;13.73;;;;;;;9.69;100.00;100702.38;5207080;28;20033;-73
2023/12/10 07:35:58;;;;;;;30.25;7.10;;;;;;;9.67;100.00;100706.22;5204361;28;20091;-73
2023/12/10 07:38:28;;;;;;;44.97;13.00;;;;;;;9.60;100.00;100708.72;5210963;28;20033;-73
2023/12/10 07:40:59;;;;;;;38.38;10.88;;;;;;;9.66;100.00;100724.13;5208210;28;20060;-73
2023/12/10 07:43:30;;;;;;;33.92;8.57;;;;;;;9.64;100.00;100722.59;5203882;28;20025;-73
2023/12/10 07:46:00;;;;;;;33.47;7.18;;;;;;;9.73;100.00;100713.59;5211293;28;20025;-73
2023/12/10 07:48:33;;;;;;;24.77;5.18;;;;;;;9.69;100.00;100720.25;5210915;28;20037;-73
2023/12/10 07:51:04;;;;;;;31.27;4.93;;;;;;;9.68;100.00;100729.31;5212066;28;20021;-73
2023/12/10 07:53:34;;;;;;;23.27;5.30;;;;;;;9.70;100.00;100740.72;5202599;28;20108;-73
2023/12/10 07:56:05;;;;;;;35.25;6.72;;;;;;;9.74;100.00;100729.50;5207988;28;20033;-73
2023/12/10 07:58:36;;;;;;;32.28;5.00;;;;;;;9.77;100.00;100741.72;5211423;28;20035;-73
2023/12/10 08:01:09;;;;;;;44.75;8.30;;;;;;;9.76;100.00;100737.38;5203066;28;20044;-73
2023/12/10 08:03:40;;;;;;;41.97;11.15;;;;;;;9.75;100.00;100752.63;5207754;28;20464;-73
2023/12/10 08:06:10;;;;;;;37.33;4.75;;;;;;;9.72;100.00;100747.56;5199132;28;20024;-73
2023/12/10 08:08:41;;;;;;;42.47;4.85;;;;;;;9.80;100.00;100750.28;5215201;28;20126;-72
2023/12/10 08:11:11;;;;;;;34.97;5.00;;;;;;;9.81;100.00;100753.81;5210194;28;20017;-73
2023/12/10 08:13:42;;;;;;;38.75;7.80;;;;;;;9.75;100.00;100763.34;5222076;28;20029;-73
2023/12/10 08:16:12;;;;;;;28.98;7.05;;;;;;;9.79;100.00;100766.53;5210858;28;20431;-73
2023/12/10 08:18:43;;;;;;;42.15;13.05;;;;;;;9.88;100.00;100762.00;5207033;28;20100;-73
2023/12/10 08:21:15;;;;;;;32.63;5.15;;;;;;;9.89;100.00;100761.00;5206872;28;20080;-73
2023/12/10 08:23:45;;;;;;;36.95;6.38;;;;;;;9.90;100.00;100766.22;5218959;28;20037;-72
2023/12/10 08:26:16;;;;;;;31.13;5.55;;;;;;;9.96;100.00;100768.25;5210799;28;20025;-73
2023/12/10 08:28:46;;;;;;;33.90;5.05;;;;;;;10.10;100.00;100767.59;5214374;28;20026;-73
2023/12/10 08:31:17;;;;;;;31.30;5.82;;;;;;;10.27;100.00;100764.97;5206639;28;20017;-73
2023/12/10 08:33:47;;;;;;;34.53;6.28;;;;;;;10.36;100.00;100772.03;5206555;28;20057;-72
2023/12/10 08:36:18;;;;;;;38.90;5.72;;;;;;;10.36;100.00;100772.84;5206482;28;20400;-73
2023/12/10 08:38:48;;;;;;;27.10;5.55;;;;;;;10.35;100.00;100768.50;5206583;28;20018;-73
2023/12/10 08:41:19;;;;;;;41.85;6.00;;;;;;;10.44;100.00;100773.84;5214302;28;20476;-72
2023/12/10 08:43:49;;;;;;;39.80;5.25;;;;;;;10.66;100.00;100764.31;5206414;28;20033;-73
2023/12/10 08:46:20;;;;;;;32.20;4.05;;;;;;;10.84;100.00;100770.31;5208829;28;20017;-73
2023/12/10 08:48:51;;;;;;;32.17;4.88;;;;;;;11.00;100.00;100774.84;5226902;28;20277;-73
2023/12/10 08:51:21;;;;;;;31.02;4.28;;;;;;;11.14;100.00;100777.66;5225625;28;20028;-72
2023/12/10 08:53:52;;;;;;;36.70;7.00;;;;;;;11.32;100.00;100761.31;5225059;28;20033;-73
2023/12/10 08:56:23;;;;;;;28.67;5.82;;;;;;;11.37;100.00;100758.13;5205953;28;20028;-73
2023/12/10 08:58:53;;;;;;;31.70;5.80;;;;;;;11.43;100.00;100753.88;5205693;28;20090;-72
2023/12/10 09:01:25;;;;;;;32.08;5.80;;;;;;;11.48;100.00;100755.03;5205782;28;20041;-72
2023/12/10 09:03:55;;;;;;;30.52;6.35;;;;;;;11.48;100.00;100768.47;5209175;28;20021;-73
2023/12/10 09:06:26;;;;;;;39.92;7.47;;;;;;;11.50;100.00;100768.31;5206014;28;20025;-72
2023/12/10 09:08:56;;;;;;;31.25;5.65;;;;;;;11.66;100.00;100781.69;5208443;28;20033;-72
2023/12/10 09:11:27;;;;;;;42.28;6.68;;;;;;;11.76;100.00;100787.69;5214413;28;20499;-72
2023/12/10 09:13:57;;;;;;;27.52;4.25;;;;;;;11.79;100.00;100787.31;5212979;28;20479;-73
2023/12/10 09:16:28;;;;;;;29.80;4.90;;;;;;;11.81;100.00;100781.78;5212435;28;20025;-73
2023/12/10 09:18:58;;;;;;;35.47;4.68;;;;;;;11.77;100.00;100796.56;5211776;28;20029;-73
2023/12/10 09:21:29;;;;;;;30.92;5.35;;;;;;;11.92;100.00;100798.38;5207746;28;20108;-74
2023/12/10 09:23:59;;;;;;;37.55;5.40;;;;;;;11.83;100.00;100801.28;5213130;28;20043;-74
2023/12/10 09:26:30;;;;;;;36.55;4.90;;;;;;;11.84;100.00;100793.03;5210850;28;20060;-74
2023/12/10 09:29:01;;;;;;;38.92;6.00;;;;;;;11.92;100.00;100794.84;5211071;28;20044;-74
2023/12/10 09:31:31;;;;;;;34.67;5.63;;;;;;;11.92;100.00;100802.91;5211681;28;20060;-74
2023/12/10 09:34:03;;;;;;;34.95;5.53;;;;;;;11.85;100.00;100791.19;5210646;28;20132;-74
2023/12/10 09:36:33;;;;;;;38.33;5.78;;;;;;;11.79;100.00;100786.47;5214742;28;20032;-74
2023/12/10 09:39:04;;;;;;;35.70;6.63;;;;;;;11.80;100.00;100778.25;5209482;28;20083;-74
2023/12/10 09:41:34;;;;;;;62.47;24.00;;;;;;;11.89;100.00;100779.06;5214157;28;20251;-74
2023/12/10 09:44:05;;;;;;;38.22;8.68;;;;;;;11.90;100.00;100778.91;5207678;28;20503;-74
2023/12/10 09:46:36;;;;;;;58.15;13.70;;;;;;;11.95;100.00;100778.38;5209285;28;20083;-74
2023/12/10 09:49:07;;;;;;;45.70;6.90;;;;;;;11.92;100.00;100771.50;5210883;28;20345;-74
2023/12/10 09:51:37;;;;;;;32.45;6.28;;;;;;;11.97;100.00;100768.28;5211864;28;20055;-74
2023/12/10 09:54:08;;;;;;;42.67;6.22;;;;;;;12.08;100.00;100773.22;5206972;28;20013;-74
2023/12/10 09:56:39;;;;;;;34.72;5.57;;;;;;;12.05;100.00;100770.91;5215033;28;20053;-74
2023/12/10 09:59:09;;;;;;;34.90;5.75;;;;;;;11.98;100.00;100767.25;5201469;28;20060;-74
2023/12/10 10:01:48;;;;;;;35.90;6.78;;;;;;;12.11;100.00;100764.00;5214839;28;20290;-73
2023/12/10 10:04:19;;;;;;;53.55;6.70;;;;;;;12.15;100.00;100758.06;5205765;28;20025;-74
2023/12/10 10:06:49;;;;;;;38.67;6.70;;;;;;;12.26;100.00;100753.31;5212880;28;20021;-74
2023/12/10 10:09:20;;;;;;;28.55;5.72;;;;;;;12.46;100.00;100761.72;5210019;28;20059;-74
2023/12/10 10:11:50;;;;;;;30.40;5.20;;;;;;;12.43;100.00;100766.44;5208757;28;20518;-74
2023/12/10 10:14:21;;;;;;;51.55;7.32;;;;;;;12.34;100.00;100772.03;5211707;28;20512;-74
2023/12/10 10:16:51;;;;;;;45.88;6.90;;;;;;;12.39;100.00;100769.66;5208596;28;20013;-74
2023/12/10 10:19:22;;;;;;;36.28;5.57;;;;;;;12.22;100.00;100787.78;5210861;28;20028;-74
2023/12/10 10:21:53;;;;;;;36.15;6.45;;;;;;;12.27;100.00;100790.75;5211369;28;20032;-74
2023/12/10 10:24:24;;;;;;;48.25;7.35;;;;;;;12.22;100.00;100779.72;5211739;28;20024;-74
2023/12/10 10:26:56;;;;;;;38.15;6.65;;;;;;;11.99;100.00;100782.34;5210460;28;20488;-74
2023/12/10 10:29:27;;;;;;;38.63;6.82;;;;;;;12.03;100.00;100780.16;5226333;28;20492;-74
2023/12/10 10:31:58;;;;;;;49.05;8.95;;;;;;;12.05;100.00;100770.06;5210482;28;20049;-74
2023/12/10 10:34:29;;;;;;;34.67;5.32;;;;;;;11.94;100.00;100779.38;5210746;28;20029;-74
2023/12/10 10:36:59;;;;;;;48.38;6.55;;;;;;;11.94;100.00;100774.00;5212398;28;20024;-74
2023/12/10 10:39:30;;;;;;;41.63;6.68;;;;;;;11.85;100.00;100758.94;5208816;28;20041;-74
2023/12/10 10:42:04;;;;;;;51.75;7.40;;;;;;;11.76;100.00;100759.97;5209368;28;20072;-74
2023/12/10 10:44:35;;;;;;;54.08;7.60;;;;;;;11.81;100.00;100749.53;5209214;28;20083;-74
2023/12/10 10:47:07;;;;;;;48.38;6.80;;;;;;;11.87;100.00;100751.53;5209774;28;20334;-74
2023/12/10 10:49:48;;;;;;;49.03;7.45;;;;;;;11.88;100.00;100755.88;5205621;28;20017;-74
2023/12/10 10:52:22;;;;;;;52.90;6.38;;;;;;;11.75;100.00;100755.59;5207926;28;20014;-74
2023/12/10 10:54:55;;;;;;;52.47;8.15;;;;;;;11.84;100.00;100754.56;5211285;28;20035;-74
2023/12/10 10:57:34;;;;;;;51.88;7.72;;;;;;;11.91;100.00;100759.06;5198381;28;20032;-74
2023/12/10 11:00:17;;;;;;;48.53;6.75;;;;;;;11.78;100.00;100749.88;5201397;28;20068;-74
2023/12/10 11:02:52;;;;;;;50.83;6.88;;;;;;;11.70;100.00;100742.69;5208835;28;20021;-74
2023/12/10 11:05:33;;;;;;;44.53;6.38;;;;;;;11.62;100.00;100740.88;5207628;28;20045;-74
2023/12/10 11:08:04;;;;;;;57.15;7.40;;;;;;;11.50;100.00;100728.03;5209469;28;20499;-73
2023/12/10 11:10:39;;;;;;;49.03;7.88;;;;;;;11.50;100.00;100720.78;5205430;28;20108;-74
2023/12/10 11:13:09;;;;;;;48.00;6.40;;;;;;;11.59;100.00;100718.88;5200338;28;20469;-74
2023/12/10 11:15:40;;;;;;;42.17;6.57;;;;;;;11.59;100.00;100724.25;5205350;28;20024;-73
2023/12/10 11:18:10;;;;;;;50.90;7.32;;;;;;;11.64;100.00;100716.50;5204647;28;20044;-74
2023/12/10 11:20:46;;;;;;;48.95;6.55;;;;;;;11.49;100.00;100707.53;5203903;28;20048;-73
2023/12/10 11:23:18;;;;;;;43.40;6.70;;;;;;;11.56;100.00;100709.34;5209007;28;20053;-74
2023/12/10 11:25:51;;;;;;;46.30;7.60;;;;;;;11.54;100.00;100716.72;5205912;28;20461;-74
2023/12/10 11:28:23;;;;;;;45.45;6.90;;;;;;;11.77;100.00;100711.41;5217571;28;20107;-74